Time;durP1;ratioP1;P1;durP2;ratioP2;P2;SDS_P1;SDS_P2;PMS_P1;PMS_P2;Temp;Humidity;BMP_temperature;BMP_pressure;BME280_temperature;BME280_humidity;BME280_pressure;Samples;Min_cycle;Max_cycle;Signal;HPM_P1;HPM_P2
2022/07/25 00:00:35;;;;;;;3.40;1.58;;;22.00;82.90;;;;;;4973563;28;20180;-91
2022/07/25 00:03:01;;;;;;;1.63;1.40;;;21.90;83.00;;;;;;4973494;28;20228;-91
2022/07/25 00:07:59;;;;;;;2.90;1.80;;;21.80;83.70;;;;;;4932684;28;20295;-90
2022/07/25 00:10:24;;;;;;;2.80;1.63;;;21.80;84.30;;;;;;4988501;28;20226;-89
2022/07/25 00:12:50;;;;;;;2.78;1.65;;;21.80;84.20;;;;;;4979250;28;20611;-89
2022/07/25 00:15:16;;;;;;;2.08;1.52;;;21.80;83.40;;;;;;4974229;28;20577;-88
2022/07/25 00:17:42;;;;;;;1.88;1.52;;;21.70;84.10;;;;;;4974966;28;20223;-90
2022/07/25 00:20:08;;;;;;;3.53;1.60;;;21.70;83.80;;;;;;4973796;28;20187;-89
2022/07/25 00:22:34;;;;;;;3.90;1.70;;;21.70;84.20;;;;;;4975082;28;20188;-88
2022/07/25 00:25:00;;;;;;;2.28;1.40;;;21.70;84.20;;;;;;4974375;28;20695;-90
2022/07/25 00:27:31;;;;;;;5.07;1.60;;;21.60;84.20;;;;;;4974624;28;20251;-91
2022/07/25 00:29:57;;;;;;;2.03;1.73;;;21.60;83.90;;;;;;4971976;28;20247;-92
2022/07/25 00:32:23;;;;;;;5.03;1.80;;;21.50;84.20;;;;;;4975121;28;20619;-90
2022/07/25 00:34:48;;;;;;;1.77;1.50;;;21.40;84.80;;;;;;4975266;28;20204;-90
2022/07/25 00:37:21;;;;;;;1.80;1.50;;;21.40;85.00;;;;;;4992260;28;20204;-88
2022/07/25 00:39:47;;;;;;;4.75;1.70;;;21.30;84.90;;;;;;4976621;28;20188;-90
2022/07/25 00:42:13;;;;;;;4.07;1.95;;;21.30;85.30;;;;;;4959350;28;20196;-91
2022/07/25 00:44:38;;;;;;;4.47;1.67;;;21.20;85.20;;;;;;4976676;28;20212;-92
2022/07/25 00:47:04;;;;;;;2.33;1.60;;;21.20;85.20;;;;;;4975492;28;20262;-89
2022/07/25 00:49:31;;;;;;;5.10;2.20;;;21.10;85.10;;;;;;4975110;28;20611;-92
2022/07/25 00:51:57;;;;;;;2.30;1.40;;;21.10;85.00;;;;;;4976194;28;20184;-93
2022/07/25 00:54:23;;;;;;;2.33;1.40;;;21.00;85.30;;;;;;4984509;28;20179;-92
2022/07/25 00:56:49;;;;;;;2.38;1.60;;;21.00;85.80;;;;;;4976208;28;20184;-90
2022/07/25 00:59:16;;;;;;;1.75;1.48;;;21.00;86.10;;;;;;4991929;28;20239;-91
2022/07/25 01:01:44;;;;;;;2.35;1.63;;;20.90;86.10;;;;;;4976151;28;20211;-92
2022/07/25 01:04:10;;;;;;;2.15;1.50;;;20.90;86.10;;;;;;4975840;28;20552;-89
2022/07/25 01:06:35;;;;;;;2.90;1.48;;;20.90;86.30;;;;;;4989961;28;20252;-92
2022/07/25 01:09:03;;;;;;;4.18;1.58;;;20.80;86.20;;;;;;4975956;28;20180;-92
2022/07/25 01:11:28;;;;;;;3.45;1.80;;;20.80;86.50;;;;;;4975473;28;20203;-89
2022/07/25 01:13:54;;;;;;;3.22;1.67;;;20.80;86.50;;;;;;4993886;28;20235;-88
2022/07/25 01:16:20;;;;;;;2.47;1.80;;;20.80;86.70;;;;;;4981947;28;20267;-90
2022/07/25 01:18:48;;;;;;;3.33;1.75;;;20.80;87.00;;;;;;4975200;28;20216;-89
2022/07/25 01:21:14;;;;;;;4.75;1.90;;;20.70;86.90;;;;;;4975239;28;20177;-89
2022/07/25 01:23:40;;;;;;;2.60;1.67;;;20.70;87.00;;;;;;4995094;28;20195;-91
2022/07/25 01:26:06;;;;;;;2.03;1.60;;;20.70;87.20;;;;;;4998770;28;20187;-90
2022/07/25 01:28:33;;;;;;;3.65;1.60;;;20.70;87.00;;;;;;4999916;28;20517;-89
2022/07/25 01:30:58;;;;;;;4.63;1.77;;;20.60;87.10;;;;;;4998553;28;20266;-96
2022/07/25 01:33:24;;;;;;;2.78;1.55;;;20.60;87.00;;;;;;4999925;28;20195;-93
2022/07/25 01:35:50;;;;;;;2.15;1.60;;;20.50;87.50;;;;;;4997882;28;20191;-91
2022/07/25 01:38:16;;;;;;;2.83;1.73;;;20.50;87.10;;;;;;4997323;28;20223;-89
2022/07/25 01:40:42;;;;;;;2.40;1.60;;;20.60;87.90;;;;;;4979876;28;20169;-91
2022/07/25 01:43:09;;;;;;;2.97;1.90;;;20.50;87.30;;;;;;4978556;28;20512;-91
2022/07/25 01:45:35;;;;;;;3.85;1.60;;;20.50;87.20;;;;;;4978581;28;20615;-89
2022/07/25 01:48:08;;;;;;;2.63;1.80;;;20.50;87.30;;;;;;4978788;28;20196;-90
2022/07/25 01:50:34;;;;;;;4.28;1.70;;;20.50;87.20;;;;;;4977547;28;20187;-89
2022/07/25 01:53:00;;;;;;;2.42;1.80;;;20.40;87.70;;;;;;4982876;28;20187;-91
2022/07/25 01:55:25;;;;;;;2.47;1.58;;;20.50;88.20;;;;;;4988921;28;20226;-88
2022/07/25 01:57:51;;;;;;;2.50;1.77;;;20.40;88.00;;;;;;4987141;28;20306;-87
2022/07/25 02:00:17;;;;;;;2.78;1.52;;;20.40;88.10;;;;;;4986453;28;20625;-89
2022/07/25 02:02:44;;;;;;;2.45;1.80;;;20.40;87.50;;;;;;4997735;28;20176;-89
2022/07/25 02:05:11;;;;;;;2.28;1.40;;;20.40;86.90;;;;;;4980868;28;20206;-91
2022/07/25 02:07:37;;;;;;;3.13;1.85;;;20.40;87.30;;;;;;4993184;28;20216;-93
2022/07/25 02:10:06;;;;;;;3.38;1.70;;;20.40;87.50;;;;;;4986315;28;20211;-93
2022/07/25 02:12:32;;;;;;;2.60;1.90;;;20.40;87.10;;;;;;4986092;28;20185;-96
2022/07/25 02:14:58;;;;;;;2.33;1.70;;;20.40;87.50;;;;;;4985623;28;20188;-96
2022/07/25 02:17:24;;;;;;;1.95;1.70;;;20.40;87.70;;;;;;4982394;28;20239;-90
2022/07/25 02:19:52;;;;;;;1.70;1.50;;;20.30;87.50;;;;;;4988744;28;20262;-92
2022/07/25 02:22:17;;;;;;;2.85;1.70;;;20.30;87.40;;;;;;4981007;28;20172;-91
2022/07/25 02:24:43;;;;;;;2.67;1.50;;;20.30;87.30;;;;;;4987131;28;20560;-89
2022/07/25 02:27:09;;;;;;;1.98;1.50;;;20.30;87.60;;;;;;4993756;28;20188;-92
2022/07/25 02:29:36;;;;;;;3.25;1.83;;;20.30;87.90;;;;;;4989609;28;20211;-91
2022/07/25 02:32:02;;;;;;;2.38;1.45;;;20.30;87.90;;;;;;4980308;28;20645;-90
2022/07/25 02:34:28;;;;;;;5.03;1.80;;;20.30;88.00;;;;;;4998301;28;20192;-92
2022/07/25 02:36:53;;;;;;;2.67;1.75;;;20.30;88.20;;;;;;5013394;28;20191;-90
2022/07/25 02:39:20;;;;;;;1.60;1.50;;;20.20;88.10;;;;;;4997771;28;20188;-91
2022/07/25 02:41:46;;;;;;;2.97;1.75;;;20.20;88.40;;;;;;4985177;28;20164;-91
2022/07/25 02:44:12;;;;;;;2.38;1.80;;;20.20;87.60;;;;;;4980297;28;20670;-91
2022/07/25 02:46:37;;;;;;;2.00;1.73;;;20.20;87.40;;;;;;4985619;28;20275;-90
2022/07/25 02:49:03;;;;;;;4.05;1.60;;;20.20;87.40;;;;;;4976799;28;20220;-89
2022/07/25 02:51:29;;;;;;;1.90;1.70;;;20.20;87.40;;;;;;4977388;28;20192;-89
2022/07/25 02:53:54;;;;;;;2.60;1.77;;;20.20;87.50;;;;;;4988173;28;20190;-93
2022/07/25 02:56:20;;;;;;;3.05;1.60;;;20.20;87.70;;;;;;4996101;28;20206;-90
2022/07/25 02:58:46;;;;;;;2.08;1.52;;;20.20;87.90;;;;;;4995913;28;20554;-89
2022/07/25 03:01:12;;;;;;;2.28;1.70;;;20.20;87.50;;;;;;4982785;28;20181;-89
2022/07/25 03:03:37;;;;;;;2.55;1.80;;;20.20;87.40;;;;;;5003271;28;20240;-90
2022/07/25 03:06:03;;;;;;;1.95;1.52;;;20.30;87.50;;;;;;4987353;28;20235;-91
2022/07/25 03:08:29;;;;;;;2.45;1.65;;;20.30;87.10;;;;;;4975009;28;20204;-90
2022/07/25 03:10:57;;;;;;;1.92;1.52;;;20.30;86.90;;;;;;4978522;28;20192;-90
2022/07/25 03:13:23;;;;;;;4.97;1.75;;;20.30;86.60;;;;;;4977834;28;20223;-89
2022/07/25 03:15:49;;;;;;;2.05;1.52;;;20.30;86.20;;;;;;4976683;28;20984;-92
2022/07/25 03:18:14;;;;;;;2.80;1.80;;;20.30;87.10;;;;;;4978344;28;20224;-90
2022/07/25 03:20:42;;;;;;;1.98;1.40;;;20.30;87.00;;;;;;4978446;28;20184;-91
2022/07/25 03:23:08;;;;;;;2.60;1.60;;;20.40;87.40;;;;;;5008937;28;20635;-92
2022/07/25 03:25:33;;;;;;;1.85;1.40;;;20.30;87.10;;;;;;4978826;28;20195;-89
2022/07/25 03:27:59;;;;;;;3.78;1.50;;;20.30;86.90;;;;;;5001716;28;20259;-90
2022/07/25 03:30:36;;;;;;;2.45;1.70;;;20.30;87.10;;;;;;4987735;28;20287;-94
2022/07/25 03:33:02;;;;;;;1.83;1.55;;;20.30;87.10;;;;;;4977311;28;20188;-91
2022/07/25 03:35:27;;;;;;;5.47;2.00;;;20.20;87.20;;;;;;4977947;28;20180;-96
2022/07/25 03:37:53;;;;;;;1.60;1.33;;;20.20;86.70;;;;;;5002151;28;20221;-94
2022/07/25 03:40:21;;;;;;;3.25;1.60;;;20.20;87.20;;;;;;4977646;28;20201;-93
2022/07/25 03:42:47;;;;;;;2.30;1.75;;;20.20;87.10;;;;;;4989750;28;20187;-90
2022/07/25 03:45:12;;;;;;;1.83;1.33;;;20.20;87.50;;;;;;4979151;28;21854;-89
2022/07/25 03:47:38;;;;;;;1.83;1.65;;;20.20;87.60;;;;;;4977824;28;20181;-91
2022/07/25 03:50:08;;;;;;;2.72;1.77;;;20.20;88.20;;;;;;4988619;28;20176;-90
2022/07/25 03:52:34;;;;;;;2.35;1.63;;;20.10;88.60;;;;;;4978661;28;20216;-92
2022/07/25 03:54:59;;;;;;;4.05;1.90;;;20.10;88.80;;;;;;4974876;28;20182;-90
2022/07/25 03:57:25;;;;;;;2.95;1.80;;;20.00;88.70;;;;;;5002079;28;20579;-91
2022/07/25 03:59:50;;;;;;;1.77;1.45;;;20.00;88.90;;;;;;4984884;28;20189;-92
2022/07/25 04:02:16;;;;;;;1.70;1.50;;;20.00;88.80;;;;;;4972774;28;20180;-90
2022/07/25 04:04:42;;;;;;;1.60;1.50;;;20.00;88.50;;;;;;4984356;28;20185;-91
2022/07/25 04:07:07;;;;;;;3.25;1.77;;;20.00;88.40;;;;;;4992613;28;20266;-89
2022/07/25 04:09:33;;;;;;;3.63;1.50;;;20.00;88.90;;;;;;4985099;28;20262;-89
2022/07/25 04:12:01;;;;;;;1.67;1.58;;;20.00;88.50;;;;;;4990375;28;20196;-90
2022/07/25 04:14:26;;;;;;;2.72;1.88;;;20.00;89.40;;;;;;4987038;28;20176;-92
2022/07/25 04:16:52;;;;;;;2.55;2.00;;;20.00;90.00;;;;;;4990177;28;20640;-90
2022/07/25 04:19:17;;;;;;;2.38;1.90;;;20.00;90.20;;;;;;4975916;28;20234;-90
2022/07/25 04:21:50;;;;;;;2.55;1.88;;;20.00;90.10;;;;;;4976580;28;20267;-89
2022/07/25 04:24:16;;;;;;;1.92;1.52;;;20.00;90.40;;;;;;4975546;28;20189;-88
2022/07/25 04:26:41;;;;;;;5.05;1.90;;;20.00;90.60;;;;;;4985552;28;20216;-89
2022/07/25 04:29:07;;;;;;;2.92;1.80;;;20.00;90.60;;;;;;4983654;28;20184;-89
2022/07/25 04:31:33;;;;;;;2.65;1.95;;;20.00;90.60;;;;;;4974773;28;20192;-89
2022/07/25 04:33:59;;;;;;;2.65;1.80;;;20.00;90.70;;;;;;4976232;28;20188;-90
2022/07/25 04:36:25;;;;;;;4.15;1.65;;;20.00;90.80;;;;;;4983034;28;20187;-89
2022/07/25 04:38:52;;;;;;;2.50;1.90;;;20.10;90.70;;;;;;4994238;28;20218;-88
2022/07/25 04:41:19;;;;;;;4.03;1.80;;;20.10;90.70;;;;;;4995373;28;20184;-89
2022/07/25 04:43:45;;;;;;;4.18;1.75;;;20.20;90.80;;;;;;4990008;28;20188;-89
2022/07/25 04:46:11;;;;;;;2.95;2.05;;;20.20;90.80;;;;;;4973872;28;20497;-89
2022/07/25 04:48:36;;;;;;;2.50;1.50;;;20.30;91.00;;;;;;4983463;28;20259;-89
2022/07/25 04:51:03;;;;;;;5.40;2.00;;;20.30;91.10;;;;;;4986057;28;20190;-89
2022/07/25 04:53:29;;;;;;;1.55;1.45;;;20.40;91.30;;;;;;4992340;28;20254;-88
2022/07/25 04:55:54;;;;;;;2.42;1.85;;;20.40;91.30;;;;;;4980241;28;20180;-87
2022/07/25 04:58:20;;;;;;;1.85;1.58;;;20.50;91.30;;;;;;4985824;28;20211;-88
2022/07/25 05:00:45;;;;;;;2.58;1.60;;;20.50;91.00;;;;;;4991762;28;20915;-89
2022/07/25 05:03:25;;;;;;;4.55;1.80;;;20.60;90.60;;;;;;4978696;28;20195;-88
2022/07/25 05:05:51;;;;;;;3.35;1.80;;;20.60;90.30;;;;;;4980285;28;20183;-88
2022/07/25 05:08:17;;;;;;;2.97;1.60;;;20.70;90.00;;;;;;4980121;28;20255;-88
2022/07/25 05:10:42;;;;;;;2.22;1.70;;;20.80;89.40;;;;;;4999394;28;20698;-88
2022/07/25 05:13:09;;;;;;;3.15;1.73;;;20.90;89.50;;;;;;4970768;28;20223;-94
2022/07/25 05:15:38;;;;;;;2.13;1.60;;;20.90;89.40;;;;;;4976854;28;20223;-89
2022/07/25 05:18:04;;;;;;;2.63;1.77;;;21.00;88.90;;;;;;4976641;28;20212;-88
2022/07/25 05:20:30;;;;;;;2.67;1.85;;;21.10;88.90;;;;;;4974480;28;20216;-90
2022/07/25 05:22:56;;;;;;;2.28;1.40;;;21.10;88.80;;;;;;4973525;28;20219;-89
2022/07/25 05:25:21;;;;;;;2.25;1.67;;;21.20;88.90;;;;;;4986327;28;20195;-89
2022/07/25 05:27:47;;;;;;;3.22;1.70;;;21.20;88.70;;;;;;4993368;28;20271;-90
2022/07/25 05:30:14;;;;;;;2.90;1.90;;;21.30;88.20;;;;;;4980868;28;20222;-89
2022/07/25 05:32:40;;;;;;;2.50;1.75;;;21.40;88.50;;;;;;4979300;28;20194;-92
2022/07/25 05:35:07;;;;;;;3.15;1.88;;;21.50;88.30;;;;;;4979687;28;20188;-90
2022/07/25 05:37:34;;;;;;;4.35;2.00;;;21.60;88.10;;;;;;4977846;28;20208;-92
2022/07/25 05:40:00;;;;;;;2.22;1.75;;;21.70;87.70;;;;;;4977161;28;20287;-93
2022/07/25 05:42:25;;;;;;;2.70;1.70;;;21.70;87.70;;;;;;4978592;28;20263;-94
2022/07/25 05:44:51;;;;;;;2.70;1.90;;;21.80;87.60;;;;;;4978727;28;20247;-92
2022/07/25 05:47:17;;;;;;;3.70;1.80;;;21.90;87.60;;;;;;4978960;28;20276;-92
2022/07/25 05:49:43;;;;;;;4.68;2.15;;;22.00;86.80;;;;;;4978846;28;20192;-89
2022/07/25 05:52:09;;;;;;;2.17;1.75;;;22.10;86.90;;;;;;4978247;28;20185;-92
2022/07/25 05:54:34;;;;;;;2.03;1.60;;;22.10;87.10;;;;;;4978128;28;20184;-94
2022/07/25 05:57:01;;;;;;;2.67;1.80;;;22.20;86.60;;;;;;4978977;28;20219;-91
2022/07/25 05:59:26;;;;;;;2.03;1.80;;;22.30;86.60;;;;;;4979175;28;20226;-92
2022/07/25 06:02:08;;;;;;;2.55;2.15;;;22.40;86.60;;;;;;4978786;28;20566;-93
2022/07/25 06:04:34;;;;;;;3.08;1.92;;;22.40;86.90;;;;;;4978479;28;20229;-90
2022/07/25 06:06:59;;;;;;;6.20;2.08;;;22.50;86.30;;;;;;4979180;28;20228;-94
2022/07/25 06:09:25;;;;;;;2.80;1.95;;;22.60;85.30;;;;;;4977674;28;20185;-90
2022/07/25 06:11:54;;;;;;;2.83;2.03;;;22.70;86.00;;;;;;4980841;28;20184;-90
2022/07/25 06:14:21;;;;;;;2.13;1.92;;;22.80;85.40;;;;;;4993305;28;20255;-95
2022/07/25 06:16:46;;;;;;;2.42;1.95;;;22.90;86.30;;;;;;4976295;28;20248;-89
2022/07/25 06:19:12;;;;;;;2.47;1.88;;;23.00;86.30;;;;;;4977797;28;20212;-92
2022/07/25 06:21:38;;;;;;;4.40;2.15;;;23.10;85.50;;;;;;4978488;28;20188;-93
2022/07/25 06:24:08;;;;;;;3.35;2.20;;;23.20;85.40;;;;;;4977638;28;20547;-91
2022/07/25 06:26:33;;;;;;;1.98;1.83;;;23.30;84.20;;;;;;4977955;28;20615;-91
2022/07/25 06:28:59;;;;;;;2.88;2.33;;;23.40;84.10;;;;;;4978767;28;20192;-91
2022/07/25 06:31:24;;;;;;;2.30;2.03;;;23.60;84.10;;;;;;4977442;28;20215;-89
2022/07/25 06:33:58;;;;;;;3.08;2.38;;;23.70;84.40;;;;;;4976862;28;20184;-92
2022/07/25 06:36:24;;;;;;;3.03;2.50;;;23.80;84.50;;;;;;4977009;28;20193;-93
2022/07/25 06:38:50;;;;;;;2.65;2.10;;;23.90;84.40;;;;;;4974555;28;20212;-90
2022/07/25 06:41:16;;;;;;;3.75;2.25;;;24.00;83.70;;;;;;4959753;28;20173;-91
2022/07/25 06:43:48;;;;;;;4.15;2.40;;;24.10;83.60;;;;;;4982954;28;20188;-87
2022/07/25 06:46:13;;;;;;;3.85;2.38;;;24.30;83.40;;;;;;4979184;28;20636;-90
2022/07/25 06:48:39;;;;;;;5.97;2.40;;;24.40;82.70;;;;;;4977273;28;20184;-88
2022/07/25 06:51:05;;;;;;;3.10;2.28;;;24.50;82.60;;;;;;4977307;28;20229;-93
2022/07/25 06:53:32;;;;;;;3.70;2.50;;;24.70;82.70;;;;;;4989993;28;20184;-88
2022/07/25 06:55:58;;;;;;;4.30;2.35;;;24.80;82.60;;;;;;4981455;28;20220;-94
2022/07/25 06:58:24;;;;;;;8.23;2.42;;;25.00;82.60;;;;;;4978310;28;20212;-92
2022/07/25 07:00:49;;;;;;;5.30;2.60;;;25.10;82.00;;;;;;4977072;28;20288;-92
2022/07/25 07:03:19;;;;;;;3.85;2.45;;;25.20;81.30;;;;;;4976585;28;20187;-90
2022/07/25 07:05:45;;;;;;;4.10;2.40;;;25.40;82.20;;;;;;4976516;28;20216;-92
2022/07/25 07:08:10;;;;;;;3.17;2.45;;;25.50;81.20;;;;;;4976767;28;20195;-90
2022/07/25 07:10:36;;;;;;;2.40;2.10;;;25.70;81.00;;;;;;4976363;28;20219;-91
2022/07/25 07:13:11;;;;;;;4.72;2.40;;;26.00;81.20;;;;;;4976152;28;20195;-88
2022/07/25 07:15:38;;;;;;;4.47;2.85;;;26.20;80.40;;;;;;4975787;28;20172;-90
2022/07/25 07:18:05;;;;;;;4.95;2.80;;;26.30;79.40;;;;;;4976924;28;20216;-93
2022/07/25 07:20:31;;;;;;;4.05;2.60;;;26.60;79.90;;;;;;4958936;28;20185;-89
2022/07/25 07:22:56;;;;;;;4.55;3.00;;;26.80;78.90;;;;;;4957456;28;20710;-92
2022/07/25 07:25:23;;;;;;;3.20;2.90;;;26.90;79.30;;;;;;4976009;28;20187;-86
2022/07/25 07:27:49;;;;;;;3.47;3.15;;;27.10;78.80;;;;;;4986516;28;20265;-87
2022/07/25 07:30:15;;;;;;;3.47;3.15;;;27.30;77.60;;;;;;4991279;28;20180;-89
2022/07/25 07:32:42;;;;;;;3.97;3.05;;;27.40;76.30;;;;;;4975951;28;20608;-89
2022/07/25 07:35:10;;;;;;;4.70;3.22;;;27.60;76.00;;;;;;4977044;28;20630;-86
2022/07/25 07:37:35;;;;;;;3.53;3.10;;;27.80;76.10;;;;;;4976123;28;20236;-90
2022/07/25 07:40:01;;;;;;;3.35;3.03;;;27.90;75.80;;;;;;4976369;28;20211;-89
2022/07/25 07:42:27;;;;;;;4.10;3.30;;;28.10;75.50;;;;;;4975823;28;20181;-87
2022/07/25 07:44:53;;;;;;;3.83;3.42;;;28.30;75.20;;;;;;4975581;28;20862;-87
2022/07/25 07:47:20;;;;;;;7.30;3.50;;;28.40;74.60;;;;;;4976911;28;20259;-91
2022/07/25 07:49:46;;;;;;;3.63;3.28;;;28.50;74.10;;;;;;4959656;28;20209;-90
2022/07/25 07:52:11;;;;;;;4.57;3.70;;;28.60;74.20;;;;;;4973105;28;20181;-90
2022/07/25 07:57:51;;;;;;;5.43;3.38;;;28.30;72.90;;;;;;4986873;28;20226;-92
2022/07/25 08:00:19;;;;;;;3.83;3.42;;;28.40;73.60;;;;;;4995526;28;20504;-91
2022/07/25 08:02:50;;;;;;;4.88;3.60;;;28.50;74.40;;;;;;4994915;28;20611;-92
2022/07/25 08:05:24;;;;;;;3.90;3.47;;;28.70;73.00;;;;;;4995175;28;20184;-92
2022/07/25 08:07:51;;;;;;;5.47;3.65;;;28.80;73.40;;;;;;4975346;28;20236;-92
2022/07/25 08:10:23;;;;;;;4.80;3.65;;;28.90;73.00;;;;;;4975664;28;20188;-90
2022/07/25 08:12:49;;;;;;;4.78;3.40;;;29.00;72.30;;;;;;4976999;28;20180;-91
2022/07/25 08:15:18;;;;;;;4.53;3.78;;;29.10;73.20;;;;;;4976649;28;20184;-93
2022/07/25 08:17:45;;;;;;;4.57;4.05;;;29.30;73.00;;;;;;4975355;28;20283;-88
2022/07/25 08:20:12;;;;;;;7.10;3.63;;;29.40;72.40;;;;;;4977174;28;20219;-92
2022/07/25 08:22:39;;;;;;;4.82;3.92;;;29.60;72.00;;;;;;4975958;28;20180;-89
2022/07/25 08:25:09;;;;;;;4.57;3.78;;;29.80;72.30;;;;;;4975305;28;20187;-92
2022/07/25 08:27:35;;;;;;;5.40;4.13;;;29.70;72.10;;;;;;4974908;28;20207;-92
2022/07/25 08:30:06;;;;;;;5.18;3.58;;;29.70;73.30;;;;;;4975712;28;20239;-95
2022/07/25 08:32:32;;;;;;;4.40;3.78;;;29.80;72.80;;;;;;4975017;28;20267;-94
2022/07/25 08:35:02;;;;;;;5.30;4.07;;;30.00;71.90;;;;;;4981260;28;20183;-92
2022/07/25 08:37:28;;;;;;;4.38;3.60;;;30.20;71.40;;;;;;4979077;28;20588;-92
2022/07/25 08:39:54;;;;;;;4.72;3.83;;;30.30;71.30;;;;;;4975624;28;20176;-89
2022/07/25 08:42:20;;;;;;;5.97;3.70;;;30.50;71.00;;;;;;4975122;28;20346;-91
2022/07/25 08:44:57;;;;;;;4.88;3.90;;;30.60;71.50;;;;;;4976310;28;20172;-92
2022/07/25 08:47:23;;;;;;;6.93;4.30;;;30.50;69.70;;;;;;4974638;28;20527;-92
2022/07/25 08:49:49;;;;;;;5.72;3.70;;;30.40;70.40;;;;;;4975483;28;20180;-94
2022/07/25 08:52:15;;;;;;;3.92;3.53;;;30.30;70.50;;;;;;4975654;28;20179;-91
2022/07/25 08:54:54;;;;;;;6.63;4.05;;;30.30;69.70;;;;;;4975425;28;20180;-92
2022/07/25 08:57:19;;;;;;;4.00;3.60;;;30.30;72.50;;;;;;4975335;28;20175;-91
2022/07/25 08:59:45;;;;;;;7.35;3.92;;;30.40;71.70;;;;;;4975608;28;20647;-92
2022/07/25 09:02:14;;;;;;;4.57;3.67;;;30.50;71.30;;;;;;4975881;28;20184;-89
2022/07/25 09:04:59;;;;;;;4.40;3.85;;;30.60;71.30;;;;;;4988529;28;20264;-93
2022/07/25 09:07:38;;;;;;;4.88;4.05;;;30.70;70.80;;;;;;4980106;28;20318;-93
2022/07/25 09:10:16;;;;;;;10.93;3.92;;;30.70;70.70;;;;;;4975528;28;20599;-94
2022/07/25 09:13:01;;;;;;;8.20;3.85;;;30.70;70.80;;;;;;4974738;28;20187;-96
2022/07/25 09:15:46;;;;;;;5.45;3.90;;;30.60;70.40;;;;;;4975521;28;20620;-94
2022/07/25 09:18:14;;;;;;;7.07;3.88;;;30.60;70.40;;;;;;4972541;28;20180;-95
2022/07/25 09:20:52;;;;;;;5.40;4.32;;;30.50;70.80;;;;;;4963405;28;20262;-92
2022/07/25 09:23:35;;;;;;;8.48;4.30;;;30.50;71.40;;;;;;4975092;28;20225;-94
2022/07/25 09:26:08;;;;;;;6.25;4.43;;;30.40;71.60;;;;;;4974935;28;20190;-93
2022/07/25 09:28:48;;;;;;;4.63;4.10;;;30.40;70.90;;;;;;4975991;28;20219;-92
2022/07/25 09:31:16;;;;;;;4.63;4.18;;;30.50;71.20;;;;;;4957135;28;20176;-93
2022/07/25 09:33:48;;;;;;;4.72;4.07;;;30.70;71.50;;;;;;4955712;29;20247;-91
2022/07/25 09:36:17;;;;;;;7.72;4.22;;;30.80;71.40;;;;;;4971244;28;20197;-92
2022/07/25 09:38:53;;;;;;;5.05;4.15;;;30.80;70.90;;;;;;4975034;28;20192;-94
2022/07/25 09:41:20;;;;;;;4.95;4.13;;;30.90;70.80;;;;;;4974987;28;20176;-90
2022/07/25 09:43:46;;;;;;;6.38;4.43;;;30.90;71.20;;;;;;4986548;28;20190;-88
2022/07/25 09:46:29;;;;;;;7.15;4.05;;;30.90;71.60;;;;;;4996523;28;20253;-89
2022/07/25 09:48:57;;;;;;;5.00;4.18;;;30.90;72.30;;;;;;4978184;28;20223;-90
2022/07/25 09:51:27;;;;;;;5.63;4.50;;;30.90;71.50;;;;;;4978456;28;20254;-90
2022/07/25 09:53:53;;;;;;;4.25;3.85;;;30.80;70.40;;;;;;4978334;28;20326;-87
2022/07/25 09:56:21;;;;;;;5.20;4.28;;;30.90;71.30;;;;;;4981169;28;20705;-90
2022/07/25 09:58:46;;;;;;;4.28;3.88;;;31.10;71.10;;;;;;4978368;28;20634;-88
2022/07/25 10:01:20;;;;;;;5.50;4.40;;;31.00;71.00;;;;;;4977654;28;20180;-89
2022/07/25 10:04:15;;;;;;;5.28;4.40;;;31.00;71.90;;;;;;4977704;28;20626;-90
2022/07/25 10:06:56;;;;;;;4.65;4.18;;;30.90;71.50;;;;;;4978425;28;20219;-95
2022/07/25 10:09:22;;;;;;;4.22;3.83;;;31.10;72.10;;;;;;4979378;28;20290;-90
2022/07/25 10:12:11;;;;;;;4.47;4.07;;;31.30;71.00;;;;;;4974575;28;20228;-96
2022/07/25 10:14:38;;;;;;;4.40;4.00;;;31.20;71.10;;;;;;4958720;29;20177;-93
2022/07/25 10:17:05;;;;;;;5.22;4.45;;;31.10;71.70;;;;;;4965087;28;20176;-93
2022/07/25 10:19:46;;;;;;;7.75;4.72;;;31.00;71.20;;;;;;4970462;28;20267;-92
2022/07/25 10:22:12;;;;;;;12.40;5.25;;;31.00;72.10;;;;;;4961223;29;20186;-91
2022/07/25 10:24:42;;;;;;;4.70;4.13;;;30.90;74.10;;;;;;4973360;28;20239;-92
2022/07/25 10:27:21;;;;;;;5.70;4.20;;;30.90;73.00;;;;;;4978561;28;20184;-90
2022/07/25 10:29:54;;;;;;;7.28;4.53;;;30.90;72.80;;;;;;4977789;28;20184;-94
2022/07/25 10:32:24;;;;;;;4.85;4.35;;;30.90;71.80;;;;;;4958126;28;20556;-93
2022/07/25 10:34:54;;;;;;;6.90;4.40;;;31.00;72.50;;;;;;4963898;28;20565;-92
2022/07/25 10:37:35;;;;;;;4.70;3.85;;;31.10;72.50;;;;;;4978015;28;20612;-91
2022/07/25 10:40:02;;;;;;;4.65;4.13;;;31.30;71.20;;;;;;4978793;28;20180;-92
2022/07/25 10:42:32;;;;;;;4.70;3.90;;;31.40;72.80;;;;;;4978253;28;20279;-89
2022/07/25 10:45:02;;;;;;;5.57;3.90;;;31.40;71.30;;;;;;4979594;28;20176;-94
2022/07/25 10:47:37;;;;;;;5.10;4.20;;;31.50;72.10;;;;;;4978712;28;20190;-93
2022/07/25 10:50:03;;;;;;;4.60;4.20;;;31.60;71.40;;;;;;4978395;28;20250;-92
2022/07/25 10:52:29;;;;;;;5.78;4.35;;;31.60;71.20;;;;;;4979338;28;20690;-89
2022/07/25 10:54:59;;;;;;;4.50;4.10;;;31.70;71.50;;;;;;4994256;28;20227;-93
2022/07/25 10:57:26;;;;;;;4.88;4.07;;;32.00;70.50;;;;;;4987157;28;20187;-89
2022/07/25 10:59:52;;;;;;;4.30;3.90;;;32.10;68.00;;;;;;4976903;28;20188;-93
2022/07/25 11:02:18;;;;;;;4.20;3.80;;;32.20;70.60;;;;;;4978509;28;20202;-90
2022/07/25 11:05:01;;;;;;;4.45;4.05;;;32.20;68.20;;;;;;4977410;28;20180;-89
2022/07/25 11:07:34;;;;;;;4.53;4.10;;;32.20;67.80;;;;;;4976785;28;20725;-91
2022/07/25 11:10:02;;;;;;;4.50;4.10;;;32.10;69.20;;;;;;4976699;28;20864;-91
2022/07/25 11:12:29;;;;;;;5.03;3.90;;;32.10;69.80;;;;;;4977865;28;20256;-92
2022/07/25 11:15:06;;;;;;;4.28;3.83;;;32.10;70.40;;;;;;4978259;28;20184;-92
2022/07/25 11:17:33;;;;;;;5.95;4.18;;;32.30;70.00;;;;;;4976929;28;20180;-89
2022/07/25 11:20:05;;;;;;;4.22;3.83;;;32.50;70.70;;;;;;4976574;28;20212;-85
2022/07/25 11:22:31;;;;;;;4.10;3.70;;;32.70;69.20;;;;;;4977482;28;20187;-92
2022/07/25 11:24:58;;;;;;;4.03;3.63;;;32.90;68.60;;;;;;4977966;28;20180;-88
2022/07/25 11:27:35;;;;;;;4.50;3.65;;;33.10;67.90;;;;;;4975754;28;20242;-91
2022/07/25 11:30:12;;;;;;;4.35;3.95;;;33.20;67.60;;;;;;4977367;28;20174;-92
2022/07/25 11:32:46;;;;;;;5.47;3.80;;;33.20;67.60;;;;;;4976378;28;20204;-89
2022/07/25 11:35:13;;;;;;;4.57;3.83;;;33.30;68.30;;;;;;4977890;28;20195;-91
2022/07/25 11:37:47;;;;;;;9.85;4.03;;;33.30;67.40;;;;;;4976976;28;20190;-89
2022/07/25 11:40:15;;;;;;;7.65;3.70;;;33.20;67.30;;;;;;4978551;28;20215;-93
2022/07/25 11:42:58;;;;;;;5.88;3.85;;;33.10;67.10;;;;;;4976530;28;20653;-91
2022/07/25 11:45:29;;;;;;;6.18;3.95;;;33.00;68.40;;;;;;4959124;28;20204;-88
2022/07/25 11:48:07;;;;;;;4.65;4.07;;;33.00;68.40;;;;;;4977231;28;20203;-91
2022/07/25 11:50:36;;;;;;;3.97;3.58;;;32.90;67.40;;;;;;4975650;28;20180;-89
2022/07/25 11:53:04;;;;;;;5.60;3.45;;;32.80;67.80;;;;;;4975617;28;20188;-92
2022/07/25 11:55:38;;;;;;;4.90;3.92;;;32.90;67.20;;;;;;4976566;28;20267;-89
2022/07/25 11:58:08;;;;;;;3.60;3.30;;;32.90;66.80;;;;;;4976413;28;20192;-91
2022/07/25 12:00:37;;;;;;;4.28;3.58;;;32.90;66.80;;;;;;4976210;28;20180;-90
2022/07/25 12:03:08;;;;;;;11.38;4.30;;;33.10;67.00;;;;;;4976958;28;20211;-93
2022/07/25 12:05:34;;;;;;;4.55;3.72;;;33.10;67.30;;;;;;4975878;28;20182;-90
2022/07/25 12:08:12;;;;;;;4.88;3.85;;;32.90;67.50;;;;;;4990343;28;20329;-92
2022/07/25 12:10:39;;;;;;;4.10;3.70;;;32.80;67.50;;;;;;5003313;28;20266;-90
2022/07/25 12:13:06;;;;;;;4.70;4.20;;;33.10;68.40;;;;;;4976262;28;20191;-89
2022/07/25 12:15:38;;;;;;;7.03;4.07;;;33.30;67.10;;;;;;4975912;28;20654;-91
2022/07/25 12:18:09;;;;;;;6.88;4.13;;;33.40;66.60;;;;;;4976992;28;20215;-93
2022/07/25 12:20:39;;;;;;;3.85;3.47;;;33.50;66.80;;;;;;4975977;28;20172;-89
2022/07/25 12:23:08;;;;;;;4.60;3.95;;;33.80;67.70;;;;;;4986605;28;20233;-91
2022/07/25 12:25:42;;;;;;;5.50;4.05;;;33.90;67.30;;;;;;4995130;28;20183;-94
2022/07/25 12:28:10;;;;;;;6.07;3.40;;;34.00;65.30;;;;;;4995494;28;20210;-92
2022/07/25 12:30:37;;;;;;;3.78;3.40;;;33.90;66.40;;;;;;4989905;28;20183;-92
2022/07/25 12:33:03;;;;;;;4.50;3.60;;;33.80;65.60;;;;;;4975560;28;20523;-86
2022/07/25 12:35:29;;;;;;;4.85;3.17;;;33.50;63.40;;;;;;4985741;28;20267;-91
2022/07/25 12:37:56;;;;;;;6.50;3.53;;;33.20;64.20;;;;;;4996507;28;20179;-91
2022/07/25 12:40:22;;;;;;;4.03;3.35;;;33.10;64.70;;;;;;4995060;28;20270;-91
2022/07/25 12:42:48;;;;;;;4.25;3.80;;;33.10;66.10;;;;;;4977666;28;20300;-90
2022/07/25 12:45:16;;;;;;;4.82;3.85;;;33.30;65.60;;;;;;4975203;28;20199;-89
2022/07/25 12:47:44;;;;;;;3.83;3.50;;;33.60;65.40;;;;;;4974619;28;20681;-91
2022/07/25 12:50:10;;;;;;;4.05;3.65;;;33.90;65.30;;;;;;4989673;28;20215;-88
2022/07/25 12:52:37;;;;;;;5.00;4.00;;;34.20;64.80;;;;;;4980460;28;20179;-89
2022/07/25 12:55:04;;;;;;;5.90;3.67;;;34.00;63.80;;;;;;4977127;28;20182;-89